Regional de Maringá - Sílvio Name Júnior Airport

SBMG · Paraná, Brazilië

METAR historie SBMG · Regional de Maringá - Sílvio Name Júnior Airport

Hieronder zie je METAR's van de afgelopen dagen. Kies een jaar om door oudere METAR's te bladeren, vanaf het jaar 2007.

20 juni 2024

Tijd Code Weer Temp. Zicht Plafond Wind METAR/SPECI
07:00
V
22 °C 10 km+ - 040° 040° 9 kt METAR SBMG 201000Z 04009KT CAVOK 22/10 Q1016
06:00
V
22 °C 10 km+ - 040° 040° 8 kt METAR SBMG 200900Z AUTO 04008KT CAVOK 22/11 Q1016
05:00
V
22 °C 10 km+ - 040° 040° 9 kt METAR SBMG 200800Z AUTO 04009KT CAVOK 22/10 Q1016
04:00
V
22 °C 10 km+ - 030° 030° 9 kt METAR SBMG 200700Z AUTO 03009KT CAVOK 22/10 Q1016
03:00
V
23 °C 10 km+ - 030° 030° 10 kt METAR SBMG 200600Z AUTO 03010KT CAVOK 23/10 Q1016
02:00
V
23 °C 10 km+ - 030° 030° 9 kt METAR SBMG 200500Z AUTO 03009KT CAVOK 23/10 Q1017
01:00
V
23 °C 10 km+ - 030° 030° 10 kt METAR SBMG 200400Z AUTO 03010KT CAVOK 23/11 Q1017
00:00
V
23 °C 10 km+ - 030° 030° 8 kt METAR SBMG 200300Z AUTO 03008KT CAVOK 23/11 Q1017

19 juni 2024

Tijd Code Weer Temp. Zicht Plafond Wind METAR/SPECI
23:00
V
24 °C 10 km+ - 040° 040° 8 kt METAR SBMG 200200Z 04008KT CAVOK 24/11 Q1017
22:00
V
23 °C 10 km+ - 040° 040° 8 kt METAR SBMG 200100Z 04008KT CAVOK 23/11 Q1017
21:00
V
23 °C 10 km+ - 040° 040° 8 kt METAR SBMG 200000Z 04008KT CAVOK 23/12 Q1016
20:00
V
23 °C 10 km+ - 040° 040° 9 kt METAR SBMG 192300Z 04009KT CAVOK 23/12 Q1016
19:00
V
23 °C 10 km+ - 040° 040° 8 kt METAR SBMG 192200Z 04008KT CAVOK 23/12 Q1015
18:00
V
26 °C 10 km+ - 020° 020° 5 kt METAR SBMG 192100Z 02005KT CAVOK 26/13 Q1015
17:00
V
29 °C 10 km+ - 010° 010° 7 kt METAR SBMG 192000Z 01007KT CAVOK 29/12 Q1014
16:00
V
29 °C 10 km+ - 350° 350° 10 kt METAR SBMG 191900Z 35010KT CAVOK 29/12 Q1014
15:00
V
29 °C 10 km+ - 340° 340° 10 kt METAR SBMG 191800Z 34010KT CAVOK 29/12 Q1014
14:00
V
29 °C 10 km+ - 350° 350° 11 kt METAR SBMG 191700Z 35011KT CAVOK 29/12 Q1015
13:00
V
28 °C 10 km+ - 010° 010° 11 kt METAR SBMG 191600Z 01011KT CAVOK 28/13 Q1016
12:00
V
27 °C 10 km+ - 010° 010° 13 kt METAR SBMG 191500Z 01013KT CAVOK 27/12 Q1017
11:00
V
26 °C 10 km+ - 020° 020° 14 kt METAR SBMG 191400Z 02014KT CAVOK 26/12 Q1017
10:00
V
24 °C 10 km+ - 020° 020° 13 kt METAR SBMG 191300Z 02013KT CAVOK 24/11 Q1017
09:00
V
22 °C 10 km+ - 030° 030° 14 kt METAR SBMG 191200Z 03014KT CAVOK 22/10 Q1016
08:00
V
21 °C 10 km+ - 030° 030° 12 kt METAR SBMG 191100Z 03012KT CAVOK 21/10 Q1016
07:00
V
20 °C 10 km+ - 030° 030° 12 kt METAR SBMG 191000Z 03012KT CAVOK 20/10 Q1014
06:00
V
20 °C 10 km+ - 030° 030° 11 kt METAR SBMG 190900Z AUTO 03011KT CAVOK 20/10 Q1014
05:00
V
20 °C 10 km+ - 030° 030° 11 kt METAR SBMG 190800Z AUTO 03011KT CAVOK 20/10 Q1014
04:00
V
19 °C 10 km+ - 030° 030° 10 kt METAR SBMG 190700Z AUTO 03010KT CAVOK 19/11 Q1013
03:00
V
19 °C 10 km+ - 020° 020° 9 kt METAR SBMG 190600Z AUTO 02009KT CAVOK 19/10 Q1014
02:00
V
19 °C 10 km+ - 030° 030° 9 kt METAR SBMG 190500Z AUTO 03009KT CAVOK 19/11 Q1014
01:00
V
18 °C 10 km+ - 030° 030° 9 kt METAR SBMG 190400Z AUTO 03009KT CAVOK 18/11 Q1014
00:00
V
20 °C 10 km+ - 020° 020° 9 kt METAR SBMG 190300Z AUTO 02009KT CAVOK 20/11 Q1013

18 juni 2024

Tijd Code Weer Temp. Zicht Plafond Wind METAR/SPECI
23:00
V
21 °C 10 km+ - 020° 020° 8 kt METAR SBMG 190200Z 02008KT CAVOK 21/12 Q1014
22:00
V
24 °C 10 km+ - 040° 040° 11 kt METAR SBMG 190100Z 04011KT CAVOK 24/12 Q1014
21:00
V
23 °C 10 km+ - 050° 050° 8 kt METAR SBMG 190000Z 05008KT CAVOK 23/12 Q1014
20:00
V
23 °C 10 km+ - 040° 040° 8 kt METAR SBMG 182300Z 04008KT CAVOK 23/12 Q1013
19:00
V
23 °C 10 km+ - 050° 050° 8 kt METAR SBMG 182200Z 05008KT CAVOK 23/12 Q1013
18:00
V
24 °C 10 km+ - 020° 020° 7 kt METAR SBMG 182100Z 02007KT CAVOK 24/12 Q1012
17:00
V
28 °C 10 km+ - 360° 360° 8 kt METAR SBMG 182000Z 36008KT CAVOK 28/11 Q1012
16:00
V
29 °C 10 km+ - 010° 010° 13 kt METAR SBMG 181900Z 01013KT CAVOK 29/11 Q1012
15:00
V
28 °C 10 km+ - 010° 010° 13 kt METAR SBMG 181800Z 01013KT CAVOK 28/12 Q1012
14:00
V
28 °C 10 km+ - 010° 010° 14 kt METAR SBMG 181700Z 01014KT CAVOK 28/12 Q1013
13:00
V
27 °C 10 km+ - 020° 020° 15 kt METAR SBMG 181600Z 02015KT CAVOK 27/12 Q1014
12:00
V
26 °C 10 km+ - 010° 010° 10 - 20 kt METAR SBMG 181500Z 01010G20KT CAVOK 26/12 Q1015
11:00
V
25 °C 10 km+ - 010° 010° 17 - 27 kt METAR SBMG 181400Z 01017G27KT CAVOK 25/12 Q1015
10:00
V
23 °C 10 km+ - 030° 030° 15 - 25 kt METAR SBMG 181300Z 03015G25KT CAVOK 23/12 Q1015
09:00
V
22 °C 10 km+ - 020° 020° 16 kt METAR SBMG 181200Z 02016KT CAVOK 22/11 Q1014
08:00
V
21 °C 10 km+ - 030° 030° 14 kt METAR SBMG 181100Z 03014KT CAVOK 21/11 Q1014
07:00
V
21 °C 10 km+ - 030° 030° 14 kt METAR SBMG 181000Z 03014KT CAVOK 21/11 Q1013
06:00
V
21 °C 10 km+ - 030° 030° 13 kt METAR SBMG 180900Z AUTO 03013KT CAVOK 21/12 Q1012
05:00
V
21 °C 10 km+ - 030° 030° 12 kt METAR SBMG 180800Z AUTO 03012KT CAVOK 21/12 Q1012
04:00
V
21 °C 10 km+ - 030° 030° 12 kt METAR SBMG 180700Z AUTO 03012KT CAVOK 21/12 Q1012
03:00
V
21 °C 10 km+ - 030° 030° 12 kt METAR SBMG 180600Z AUTO 03012KT CAVOK 21/12 Q1012
Wijziging doorgeven